createdAt,value
2023-03-24T00:01:21.279Z,11.65
2023-03-24T00:03:52.302Z,11.71
2023-03-24T00:06:22.871Z,11.67
2023-03-24T00:08:53.346Z,11.70
2023-03-24T00:11:23.383Z,11.68
2023-03-24T00:13:51.855Z,11.70
2023-03-24T00:16:22.043Z,11.71
2023-03-24T00:18:54.353Z,11.67
2023-03-24T00:21:24.647Z,11.63
2023-03-24T00:23:54.448Z,11.63
2023-03-24T00:26:25.234Z,11.62
2023-03-24T00:28:54.695Z,11.60
2023-03-24T00:31:24.546Z,11.61
2023-03-24T00:33:53.868Z,11.56
2023-03-24T00:36:24.682Z,11.54
2023-03-24T00:38:53.580Z,11.58
2023-03-24T00:41:27.111Z,11.59
2023-03-24T00:43:57.103Z,11.59
2023-03-24T00:46:32.302Z,11.60
2023-03-24T00:49:03.690Z,11.65
2023-03-24T00:51:33.937Z,11.64
2023-03-24T00:54:02.558Z,11.62
2023-03-24T00:56:35.931Z,11.66
2023-03-24T00:59:04.912Z,11.64
2023-03-24T01:01:35.573Z,11.64
2023-03-24T01:04:06.159Z,11.67
2023-03-24T01:06:36.734Z,11.63
2023-03-24T01:09:05.774Z,11.65
2023-03-24T01:11:40.073Z,11.64
2023-03-24T01:14:09.803Z,11.65
2023-03-24T01:16:38.831Z,11.66
2023-03-24T01:19:09.480Z,11.67
2023-03-24T01:21:38.512Z,11.67
2023-03-24T01:24:07.865Z,11.65
2023-03-24T01:26:38.062Z,11.65
2023-03-24T01:29:07.507Z,11.64
2023-03-24T01:31:36.047Z,11.62
2023-03-24T01:34:04.634Z,11.61
2023-03-24T01:36:33.036Z,11.57
2023-03-24T01:39:01.639Z,11.56
2023-03-24T01:41:33.785Z,11.55
2023-03-24T01:44:23.997Z,11.56
2023-03-24T01:46:52.571Z,11.57
2023-03-24T01:49:21.053Z,11.60
2023-03-24T01:51:50.563Z,11.63
2023-03-24T01:54:20.490Z,11.63
2023-03-24T01:56:56.769Z,11.67
2023-03-24T01:59:31.785Z,11.67
2023-03-24T02:02:16.121Z,11.68
2023-03-24T02:04:54.356Z,11.67
2023-03-24T02:07:33.285Z,11.67
2023-03-24T02:10:02.816Z,11.65
2023-03-24T02:12:32.307Z,11.66
2023-03-24T02:15:02.536Z,11.73
2023-03-24T02:18:06.501Z,11.74
2023-03-24T02:21:13.995Z,11.73
2023-03-24T02:23:59.225Z,11.75
2023-03-24T02:26:41.914Z,11.78
2023-03-24T02:29:48.490Z,11.80
2023-03-24T02:32:31.775Z,11.76
2023-03-24T02:35:45.391Z,11.71
2023-03-24T02:38:42.544Z,11.69
2023-03-24T02:41:13.298Z,11.65
2023-03-24T02:43:45.156Z,11.67
2023-03-24T02:46:15.773Z,11.71
2023-03-24T02:48:50.560Z,11.68
2023-03-24T02:51:21.592Z,11.69
2023-03-24T02:53:54.198Z,11.67
2023-03-24T02:56:36.325Z,11.62
2023-03-24T02:59:33.980Z,11.63
2023-03-24T03:02:06.433Z,11.60
2023-03-24T03:04:41.198Z,11.57
2023-03-24T03:07:11.818Z,11.57
2023-03-24T03:09:42.516Z,11.61
2023-03-24T03:12:12.735Z,11.61
2023-03-24T03:14:41.968Z,11.61
2023-03-24T03:17:12.701Z,11.60
2023-03-24T03:19:42.916Z,11.60
2023-03-24T03:22:14.455Z,11.58
2023-03-24T03:24:43.642Z,11.54
2023-03-24T03:27:16.025Z,11.51
2023-03-24T03:29:46.174Z,11.54
2023-03-24T03:32:16.986Z,11.49
2023-03-24T03:34:47.167Z,11.48
2023-03-24T03:37:21.599Z,11.49
2023-03-24T03:39:51.409Z,11.53
2023-03-24T03:42:21.609Z,11.47
2023-03-24T03:44:50.375Z,11.43
2023-03-24T03:47:21.444Z,11.39
2023-03-24T03:49:50.432Z,11.36
2023-03-24T03:52:18.906Z,11.34
2023-03-24T03:54:49.512Z,11.33
2023-03-24T03:57:18.002Z,11.32
2023-03-24T04:00:17.182Z,11.24
2023-03-24T04:03:13.093Z,11.22
2023-03-24T04:05:46.514Z,11.19
2023-03-24T04:08:22.184Z,11.21
2023-03-24T04:11:26.222Z,11.19
2023-03-24T04:14:27.926Z,11.25
2023-03-24T04:17:27.558Z,11.31
2023-03-24T04:20:04.165Z,11.36
2023-03-24T04:22:39.186Z,11.42
2023-03-24T04:25:22.736Z,11.46
2023-03-24T04:27:57.433Z,11.42
2023-03-24T04:30:28.072Z,11.36
2023-03-24T04:32:59.441Z,11.36
2023-03-24T04:35:32.783Z,11.37
2023-03-24T04:38:17.385Z,11.41
2023-03-24T04:40:51.207Z,11.41
2023-03-24T04:43:21.065Z,11.40
2023-03-24T04:45:50.083Z,11.46
2023-03-24T04:48:42.651Z,11.53
2023-03-24T04:51:29.709Z,11.58
2023-03-24T04:54:07.640Z,11.57
2023-03-24T04:56:41.931Z,11.56
2023-03-24T04:59:19.693Z,11.57
2023-03-24T05:01:49.938Z,11.57
2023-03-24T05:04:40.174Z,11.55
2023-03-24T05:07:27.610Z,11.50
2023-03-24T05:10:00.429Z,11.48
2023-03-24T05:12:29.062Z,11.48
2023-03-24T05:15:16.125Z,11.51
2023-03-24T05:17:45.612Z,11.51
2023-03-24T05:20:15.705Z,11.51
2023-03-24T05:22:49.873Z,11.50
2023-03-24T05:25:18.241Z,11.56
2023-03-24T05:27:47.144Z,11.63
2023-03-24T05:30:25.027Z,11.71
2023-03-24T05:32:59.677Z,11.73
2023-03-24T05:35:29.775Z,11.73
2023-03-24T05:37:58.165Z,11.74
2023-03-24T05:40:26.712Z,11.74
2023-03-24T05:43:08.345Z,11.72
2023-03-24T05:46:42.915Z,11.68
2023-03-24T05:49:11.725Z,11.72
2023-03-24T05:51:44.221Z,11.73
2023-03-24T05:54:12.816Z,11.77
2023-03-24T05:56:43.832Z,11.78
2023-03-24T05:59:28.476Z,11.78
2023-03-24T06:02:06.102Z,11.77
2023-03-24T06:04:51.837Z,11.83
2023-03-24T06:07:26.977Z,11.94
2023-03-24T06:09:58.336Z,12.10
2023-03-24T06:12:27.948Z,12.19
2023-03-24T06:15:03.733Z,12.33
2023-03-24T06:17:34.065Z,12.42
2023-03-24T06:20:15.679Z,12.47
2023-03-24T06:23:02.982Z,12.52
2023-03-24T06:25:44.513Z,12.54
2023-03-24T06:28:21.446Z,12.56
2023-03-24T06:30:51.560Z,12.58
2023-03-24T06:33:28.990Z,12.57
2023-03-24T06:35:57.422Z,12.58
2023-03-24T06:38:28.300Z,12.62
2023-03-24T06:41:01.564Z,12.67
2023-03-24T06:43:30.739Z,12.64
2023-03-24T06:45:59.171Z,12.66
2023-03-24T06:48:28.884Z,12.66
2023-03-24T06:51:03.632Z,12.66
2023-03-24T06:53:33.872Z,12.65
2023-03-24T06:56:02.439Z,12.66
2023-03-24T06:58:38.084Z,12.66
2023-03-24T07:01:08.520Z,12.66
2023-03-24T07:03:51.914Z,12.66
2023-03-24T07:07:00.918Z,12.65
2023-03-24T07:09:34.053Z,12.61
2023-03-24T07:12:03.613Z,12.55
2023-03-24T07:14:32.084Z,12.51
2023-03-24T07:17:02.505Z,12.49
2023-03-24T07:19:51.141Z,12.47
2023-03-24T07:22:42.418Z,12.44
2023-03-24T07:25:31.134Z,12.43
2023-03-24T07:28:12.240Z,12.39
2023-03-24T07:30:41.364Z,12.39
2023-03-24T07:33:12.137Z,12.38
2023-03-24T07:35:42.182Z,12.38
2023-03-24T07:38:11.531Z,12.41
2023-03-24T07:40:41.772Z,12.47
2023-03-24T07:43:10.194Z,12.53
2023-03-24T07:45:45.955Z,12.55
2023-03-24T07:48:15.501Z,12.59
2023-03-24T07:50:44.280Z,12.59
2023-03-24T07:53:34.150Z,12.58
2023-03-24T07:56:04.964Z,12.54
2023-03-24T07:58:33.873Z,12.54
2023-03-24T08:01:12.814Z,12.64
2023-03-24T08:03:49.279Z,12.78
2023-03-24T08:06:18.008Z,12.85
2023-03-24T08:08:51.879Z,12.95
2023-03-24T08:11:21.800Z,12.92
2023-03-24T08:13:50.153Z,12.89
2023-03-24T08:16:18.577Z,12.82
2023-03-24T08:18:48.810Z,12.86
2023-03-24T08:21:17.179Z,12.91
2023-03-24T08:23:45.530Z,12.91
2023-03-24T08:26:13.886Z,12.87
2023-03-24T08:28:43.602Z,12.86
2023-03-24T08:31:12.485Z,12.82
2023-03-24T08:33:41.781Z,12.80
2023-03-24T08:36:10.340Z,12.80
2023-03-24T08:38:39.151Z,12.72
2023-03-24T08:41:08.652Z,12.63
2023-03-24T08:43:37.548Z,12.62
2023-03-24T08:46:08.698Z,12.59
2023-03-24T08:48:40.673Z,12.60
2023-03-24T08:51:13.503Z,12.70
2023-03-24T08:53:41.966Z,12.79
2023-03-24T08:56:10.458Z,12.88
2023-03-24T08:58:39.179Z,13.07
2023-03-24T09:01:09.113Z,13.38
2023-03-24T09:03:39.645Z,13.82
2023-03-24T09:06:08.536Z,14.13
2023-03-24T09:08:36.926Z,14.35
2023-03-24T09:11:05.304Z,14.54
2023-03-24T09:13:34.118Z,14.55
2023-03-24T09:16:03.782Z,14.31
2023-03-24T09:18:33.850Z,14.06
2023-03-24T09:21:02.464Z,13.93
2023-03-24T09:23:31.721Z,13.93
2023-03-24T09:26:00.146Z,13.97
2023-03-24T09:28:28.512Z,14.03
2023-03-24T09:31:00.802Z,14.23
2023-03-24T09:33:30.791Z,14.44
2023-03-24T09:36:01.225Z,14.43
2023-03-24T09:38:29.843Z,14.38
2023-03-24T09:41:01.084Z,14.37
2023-03-24T09:43:33.113Z,14.54
2023-03-24T09:46:02.932Z,14.55
2023-03-24T09:48:35.746Z,14.40
2023-03-24T09:51:06.841Z,14.36
2023-03-24T09:53:38.458Z,14.31
2023-03-24T09:56:12.925Z,14.62
2023-03-24T09:58:42.176Z,14.71
2023-03-24T10:01:16.352Z,14.73
2023-03-24T10:03:51.844Z,14.85
2023-03-24T10:06:23.190Z,14.66
2023-03-24T10:08:52.407Z,14.51
2023-03-24T10:11:23.480Z,14.25
2023-03-24T10:14:03.200Z,14.22
2023-03-24T10:16:35.275Z,14.19
2023-03-24T10:19:07.167Z,14.03
2023-03-24T10:21:36.427Z,13.93
2023-03-24T10:24:07.774Z,13.95
2023-03-24T10:26:40.376Z,13.96
2023-03-24T10:29:19.245Z,14.01
2023-03-24T10:31:48.582Z,13.96
2023-03-24T10:34:18.105Z,13.97
2023-03-24T10:36:46.646Z,14.05
2023-03-24T10:39:20.015Z,14.01
2023-03-24T10:41:50.898Z,13.96
2023-03-24T10:44:19.033Z,13.89
2023-03-24T10:46:48.264Z,13.86
2023-03-24T10:49:19.850Z,13.84
2023-03-24T10:51:49.814Z,13.87
2023-03-24T10:54:19.119Z,13.87
2023-03-24T10:56:47.852Z,13.78
2023-03-24T10:59:21.379Z,13.66
2023-03-24T11:01:49.581Z,13.57
2023-03-24T11:04:20.127Z,13.48
2023-03-24T11:07:04.117Z,13.43
2023-03-24T11:09:39.744Z,13.35
2023-03-24T11:12:21.287Z,13.35
2023-03-24T11:14:49.367Z,13.34
2023-03-24T11:17:17.762Z,13.35
2023-03-24T11:19:55.336Z,13.31
2023-03-24T11:22:23.459Z,13.26
2023-03-24T11:24:53.017Z,13.21
2023-03-24T11:27:21.086Z,13.18
2023-03-24T11:29:50.966Z,13.23
2023-03-24T11:32:22.186Z,13.29
2023-03-24T11:34:52.696Z,13.28
2023-03-24T11:37:23.006Z,13.27
2023-03-24T11:40:07.687Z,13.20
2023-03-24T11:42:36.795Z,13.21
2023-03-24T11:45:24.453Z,13.21
2023-03-24T11:47:53.541Z,13.27
2023-03-24T11:50:22.734Z,13.24
2023-03-24T11:52:53.894Z,13.20
2023-03-24T11:55:25.497Z,13.22
2023-03-24T11:57:55.753Z,13.23
2023-03-24T12:00:28.448Z,13.19
2023-03-24T12:03:08.718Z,13.12
2023-03-24T12:05:38.205Z,13.08
2023-03-24T12:08:18.488Z,13.10
2023-03-24T12:10:52.858Z,13.08
2023-03-24T12:13:32.477Z,13.12
2023-03-24T12:16:06.272Z,13.17
2023-03-24T12:18:54.679Z,13.20
2023-03-24T12:21:27.075Z,13.20
2023-03-24T12:23:59.116Z,13.21
2023-03-24T12:26:28.286Z,13.21
2023-03-24T12:29:18.463Z,13.19
2023-03-24T12:32:10.802Z,13.22
2023-03-24T12:35:01.864Z,13.44
2023-03-24T12:37:33.888Z,13.59
2023-03-24T12:40:13.019Z,13.67
2023-03-24T12:42:52.229Z,13.78
2023-03-24T12:45:28.428Z,13.89
2023-03-24T12:48:08.821Z,14.03
2023-03-24T12:50:43.024Z,14.10
2023-03-24T12:53:26.871Z,14.09
2023-03-24T12:55:57.500Z,14.00
2023-03-24T12:58:28.210Z,13.90
2023-03-24T13:01:01.280Z,13.77
2023-03-24T13:03:31.925Z,13.72
2023-03-24T13:06:07.499Z,13.72
2023-03-24T13:08:45.210Z,13.72
2023-03-24T13:11:22.032Z,13.66
2023-03-24T13:14:00.546Z,13.64
2023-03-24T13:16:30.127Z,13.58
2023-03-24T13:18:59.880Z,13.57
2023-03-24T13:21:29.842Z,13.51
2023-03-24T13:23:59.048Z,13.43
2023-03-24T13:26:35.336Z,13.36
2023-03-24T13:29:13.867Z,13.31
2023-03-24T13:31:43.795Z,13.26
2023-03-24T13:34:21.266Z,13.13
2023-03-24T13:36:50.365Z,12.61
2023-03-24T13:39:19.982Z,12.01
2023-03-24T13:41:51.205Z,11.41
2023-03-24T13:44:20.763Z,11.02
2023-03-24T13:47:13.056Z,10.71
2023-03-24T13:49:41.519Z,10.45
2023-03-24T13:52:22.997Z,10.46
2023-03-24T13:54:57.776Z,10.40
2023-03-24T13:57:27.883Z,10.39
2023-03-24T14:00:11.783Z,10.41
2023-03-24T14:02:46.965Z,10.36
2023-03-24T14:05:42.813Z,10.31
2023-03-24T14:08:16.291Z,10.23
2023-03-24T14:10:46.013Z,10.23
2023-03-24T14:13:35.214Z,10.38
2023-03-24T14:16:28.397Z,10.42
2023-03-24T14:19:11.559Z,10.36
2023-03-24T14:21:41.687Z,10.35
2023-03-24T14:24:17.373Z,10.38
2023-03-24T14:26:45.504Z,10.41
2023-03-24T14:29:43.876Z,10.43
2023-03-24T14:32:20.284Z,10.44
2023-03-24T14:34:53.798Z,10.39
2023-03-24T14:37:22.161Z,10.34
2023-03-24T14:39:50.365Z,10.35
2023-03-24T14:42:43.943Z,10.37
2023-03-24T14:45:39.390Z,10.35
2023-03-24T14:48:21.622Z,10.35
2023-03-24T14:50:50.076Z,10.35
2023-03-24T14:53:20.096Z,10.37
2023-03-24T14:55:48.996Z,10.38
2023-03-24T14:58:21.721Z,10.41
2023-03-24T15:01:06.453Z,10.44
2023-03-24T15:03:40.201Z,10.54
2023-03-24T15:06:14.136Z,10.68
2023-03-24T15:08:46.011Z,10.81
2023-03-24T15:11:15.008Z,10.84
2023-03-24T15:13:43.137Z,10.91
2023-03-24T15:16:19.044Z,10.78
2023-03-24T15:19:00.007Z,10.73
2023-03-24T15:21:31.819Z,10.68
2023-03-24T15:24:01.450Z,10.62
2023-03-24T15:26:29.927Z,10.56
2023-03-24T15:28:59.327Z,10.55
2023-03-24T15:31:30.292Z,10.57
2023-03-24T15:34:07.599Z,10.55
2023-03-24T15:36:38.968Z,10.55
2023-03-24T15:39:18.612Z,10.56
2023-03-24T15:41:47.158Z,10.60
2023-03-24T15:44:19.166Z,10.62
2023-03-24T15:46:47.287Z,10.58
2023-03-24T15:49:26.523Z,10.60
2023-03-24T15:51:57.789Z,10.56
2023-03-24T15:54:26.500Z,10.54
2023-03-24T15:57:05.126Z,10.59
2023-03-24T15:59:37.216Z,10.61
2023-03-24T16:02:06.062Z,10.65
2023-03-24T16:04:35.639Z,10.65
2023-03-24T16:07:04.787Z,10.64
2023-03-24T16:09:38.076Z,10.66
2023-03-24T16:12:11.344Z,10.60
2023-03-24T16:14:40.017Z,10.56
2023-03-24T16:17:08.143Z,10.49
2023-03-24T16:19:39.094Z,10.48
2023-03-24T16:22:10.401Z,10.41
2023-03-24T16:24:38.473Z,10.35
2023-03-24T16:27:06.544Z,10.22
2023-03-24T16:29:34.689Z,10.16
2023-03-24T16:32:03.643Z,10.09
2023-03-24T16:34:32.356Z,10.02
2023-03-24T16:37:02.639Z,9.99
2023-03-24T16:39:31.145Z,9.95
2023-03-24T16:41:59.228Z,9.94
2023-03-24T16:44:27.432Z,9.89
2023-03-24T16:46:56.263Z,9.87
2023-03-24T16:49:24.746Z,9.84
2023-03-24T16:51:53.874Z,9.81
2023-03-24T16:54:23.571Z,9.77
2023-03-24T16:56:51.761Z,9.72
2023-03-24T16:59:20.805Z,9.67
2023-03-24T17:01:49.714Z,9.64
2023-03-24T17:04:19.464Z,9.61
2023-03-24T17:06:49.221Z,9.55
2023-03-24T17:09:17.475Z,9.50
2023-03-24T17:11:49.244Z,9.44
2023-03-24T17:14:17.689Z,9.42
2023-03-24T17:16:46.497Z,9.36
2023-03-24T17:19:15.700Z,9.35
2023-03-24T17:21:45.297Z,9.28
2023-03-24T17:24:13.450Z,9.24
2023-03-24T17:26:42.422Z,9.20
2023-03-24T17:29:12.559Z,9.17
2023-03-24T17:31:43.002Z,9.09
2023-03-24T17:36:49.888Z,9.00
2023-03-24T17:39:18.601Z,8.98
2023-03-24T17:41:46.698Z,8.97
2023-03-24T17:44:16.364Z,8.92
2023-03-24T17:46:44.505Z,8.82
2023-03-24T17:49:12.570Z,8.74
2023-03-24T17:51:40.754Z,8.74
2023-03-24T17:54:10.337Z,8.73
2023-03-24T17:56:38.556Z,8.74
2023-03-24T17:59:06.682Z,8.72
2023-03-24T18:01:39.278Z,8.72
2023-03-24T18:04:07.916Z,8.71
2023-03-24T18:06:38.622Z,8.69
2023-03-24T18:09:07.439Z,8.69
2023-03-24T18:11:35.618Z,8.68
2023-03-24T18:14:03.714Z,8.66
2023-03-24T18:16:31.868Z,8.64
2023-03-24T18:19:02.485Z,8.62
2023-03-24T18:21:30.665Z,8.60
2023-03-24T18:23:58.753Z,8.55
2023-03-24T18:26:26.940Z,8.53
2023-03-24T18:28:55.046Z,8.52
2023-03-24T18:31:23.628Z,8.51
2023-03-24T18:33:52.325Z,8.48
2023-03-24T18:36:26.506Z,8.46
2023-03-24T18:38:57.524Z,8.45
2023-03-24T18:41:26.887Z,8.42
2023-03-24T18:43:55.817Z,8.42
2023-03-24T18:46:24.043Z,8.40
2023-03-24T18:48:53.295Z,8.40
2023-03-24T18:51:22.886Z,8.30
2023-03-24T18:53:51.109Z,8.24
2023-03-24T18:56:19.727Z,8.29
2023-03-24T18:58:49.248Z,8.27
2023-03-24T19:01:22.625Z,8.26
2023-03-24T19:03:52.063Z,8.27
2023-03-24T19:06:20.314Z,8.25
2023-03-24T19:08:51.774Z,8.25
2023-03-24T19:11:20.173Z,8.21
2023-03-24T19:13:50.673Z,8.18
2023-03-24T19:16:19.271Z,8.19
2023-03-24T19:18:48.613Z,8.15
2023-03-24T19:21:16.998Z,8.11
2023-03-24T19:23:46.686Z,8.09
2023-03-24T19:26:17.084Z,8.07
2023-03-24T19:28:45.305Z,8.10
2023-03-24T19:31:15.389Z,8.08
2023-03-24T19:33:43.520Z,8.09
2023-03-24T19:36:11.656Z,8.11
2023-03-24T19:38:39.890Z,8.12
2023-03-24T19:41:09.974Z,8.17
2023-03-24T19:43:39.535Z,8.17
2023-03-24T19:46:07.730Z,8.26
2023-03-24T19:48:36.394Z,8.28
2023-03-24T19:51:04.554Z,8.26
2023-03-24T19:53:32.635Z,8.24
2023-03-24T19:56:01.375Z,8.22
2023-03-24T19:58:29.520Z,8.17
2023-03-24T20:00:58.956Z,8.17
2023-03-24T20:03:28.939Z,8.23
2023-03-24T20:05:57.207Z,8.25
2023-03-24T20:08:26.133Z,8.25
2023-03-24T20:10:54.262Z,8.28
2023-03-24T20:13:24.134Z,8.28
2023-03-24T20:15:52.656Z,8.31
2023-03-24T20:18:22.333Z,8.27
2023-03-24T20:20:51.330Z,8.23
2023-03-24T20:23:19.377Z,8.20
2023-03-24T20:25:47.721Z,8.24
2023-03-24T20:28:16.007Z,8.27
2023-03-24T20:30:45.212Z,8.24
2023-03-24T20:33:13.558Z,8.27
2023-03-24T20:35:44.578Z,8.29
2023-03-24T20:38:12.650Z,8.32
2023-03-24T20:40:40.751Z,8.31
2023-03-24T20:43:08.807Z,8.28
2023-03-24T20:45:36.945Z,8.28
2023-03-24T20:48:05.808Z,8.27
2023-03-24T20:50:34.048Z,8.25
2023-03-24T20:53:03.541Z,8.25
2023-03-24T20:55:31.719Z,8.24
2023-03-24T20:58:01.320Z,8.20
2023-03-24T21:00:29.814Z,8.17
2023-03-24T21:02:57.957Z,8.13
2023-03-24T21:05:26.288Z,8.14
2023-03-24T21:07:54.352Z,8.11
2023-03-24T21:10:24.181Z,8.13
2023-03-24T21:12:53.550Z,8.14
2023-03-24T21:15:25.014Z,8.12
2023-03-24T21:17:53.475Z,8.08
2023-03-24T21:20:21.859Z,8.11
2023-03-24T21:22:55.044Z,8.09
2023-03-24T21:25:25.892Z,8.05
2023-03-24T21:27:54.005Z,8.04
2023-03-24T21:30:23.646Z,8.08
2023-03-24T21:32:52.761Z,8.06
2023-03-24T21:35:21.043Z,8.05
2023-03-24T21:37:49.584Z,8.06
2023-03-24T21:40:18.744Z,8.07
2023-03-24T21:42:49.710Z,8.05
2023-03-24T21:45:19.232Z,8.01
2023-03-24T21:47:48.157Z,7.98
2023-03-24T21:50:18.952Z,7.99
2023-03-24T21:52:47.826Z,8.00
2023-03-24T21:55:16.234Z,7.98
2023-03-24T21:57:44.903Z,7.97
2023-03-24T22:00:15.778Z,7.95
2023-03-24T22:02:45.567Z,8.03
2023-03-24T22:05:13.966Z,8.02
2023-03-24T22:07:42.487Z,8.04
2023-03-24T22:10:13.489Z,8.02
2023-03-24T22:12:43.038Z,8.00
2023-03-24T22:15:11.976Z,8.01
2023-03-24T22:17:42.069Z,8.01
2023-03-24T22:20:11.506Z,8.03
2023-03-24T22:22:39.653Z,8.01
2023-03-24T22:25:09.831Z,7.97
2023-03-24T22:27:38.277Z,7.94
2023-03-24T22:30:07.662Z,7.89
2023-03-24T22:32:36.874Z,7.89
2023-03-24T22:35:07.383Z,7.93
2023-03-24T22:37:35.546Z,7.95
2023-03-24T22:40:05.145Z,7.94
2023-03-24T22:42:33.173Z,7.96
2023-03-24T22:45:01.350Z,7.97
2023-03-24T22:47:29.385Z,7.97
2023-03-24T22:49:57.505Z,7.94
2023-03-24T22:52:28.149Z,7.95
2023-03-24T22:54:56.362Z,7.94
2023-03-24T22:57:24.389Z,7.96
2023-03-24T22:59:52.460Z,7.96
2023-03-24T23:02:24.619Z,7.97
2023-03-24T23:04:55.133Z,7.94
2023-03-24T23:07:23.719Z,7.87
2023-03-24T23:09:53.381Z,7.91
2023-03-24T23:12:21.473Z,7.93
2023-03-24T23:14:49.526Z,7.93
2023-03-24T23:17:17.579Z,7.97
2023-03-24T23:19:45.615Z,7.98
2023-03-24T23:22:13.666Z,7.93
2023-03-24T23:24:41.759Z,7.89
2023-03-24T23:27:11.169Z,7.84
2023-03-24T23:29:40.297Z,7.84
2023-03-24T23:32:08.412Z,7.83
2023-03-24T23:34:38.108Z,7.89
2023-03-24T23:37:06.190Z,7.91
2023-03-24T23:39:36.631Z,7.91
2023-03-24T23:42:04.766Z,7.93
2023-03-24T23:44:34.232Z,7.90
2023-03-24T23:47:02.702Z,7.90
2023-03-24T23:49:30.941Z,7.92
2023-03-24T23:51:58.973Z,7.97
2023-03-24T23:54:27.410Z,8.04
2023-03-24T23:56:55.451Z,8.07
2023-03-24T23:59:23.767Z,8.13
